Time;durP1;ratioP1;P1;durP2;ratioP2;P2;SDS_P1;SDS_P2;PMS_P1;PMS_P2;Temp;Humidity;BMP_temperature;BMP_pressure;BME280_temperature;BME280_humidity;BME280_pressure;Samples;Min_cycle;Max_cycle;Signal;HPM_P1;HPM_P2
2022/10/21 00:01:40;;;;;;;24.23;15.93;;;;;;;10.54;86.78;98496.63;5046776;28;20025;-89
2022/10/21 00:04:05;;;;;;;22.90;14.90;;;;;;;10.60;87.01;98513.47;5045528;28;20032;-90
2022/10/21 00:06:32;;;;;;;20.38;15.02;;;;;;;10.61;86.75;98505.22;5049392;28;20591;-90
2022/10/21 00:08:57;;;;;;;20.15;15.90;;;;;;;10.72;87.19;98519.44;5016562;28;20110;-89
2022/10/21 00:11:23;;;;;;;19.88;14.23;;;;;;;10.68;86.93;98502.34;5045186;28;20033;-89
2022/10/21 00:13:48;;;;;;;20.35;14.75;;;;;;;10.73;86.86;98518.38;5048851;28;20032;-89
2022/10/21 00:16:16;;;;;;;20.77;16.65;;;;;;;10.52;87.34;98496.09;5031232;28;20036;-89
2022/10/21 00:18:43;;;;;;;18.35;14.70;;;;;;;10.32;87.42;98480.72;5013104;28;20021;-89
2022/10/21 00:21:12;;;;;;;23.80;16.88;;;;;;;10.24;88.40;98499.06;5047937;28;20033;-89
2022/10/21 00:23:37;;;;;;;25.35;17.05;;;;;;;9.80;90.75;98495.72;5046516;28;20078;-89
2022/10/21 00:26:04;;;;;;;19.17;15.10;;;;;;;10.33;88.03;98487.66;5044793;28;20033;-90
2022/10/21 00:28:30;;;;;;;21.42;15.20;;;;;;;10.52;87.27;98509.44;5031312;28;20025;-89
2022/10/21 00:30:56;;;;;;;21.63;15.15;;;;;;;10.40;87.79;98500.78;5026108;28;20119;-90
2022/10/21 00:33:22;;;;;;;19.27;14.55;;;;;;;10.57;87.07;98509.47;5049583;28;20033;-90
2022/10/21 00:35:56;;;;;;;25.45;15.85;;;;;;;10.50;86.90;98493.69;5048916;28;20039;-89
2022/10/21 00:38:22;;;;;;;21.52;15.93;;;;;;;10.42;86.58;98470.13;5048430;28;20809;-90
2022/10/21 00:40:47;;;;;;;19.58;15.43;;;;;;;10.41;86.95;98467.72;5028963;28;20033;-90
2022/10/21 00:43:13;;;;;;;20.98;15.68;;;;;;;9.94;87.04;98403.59;5046773;28;20029;-90
2022/10/21 00:45:39;;;;;;;22.70;14.48;;;;;;;10.53;86.74;98482.47;5033096;28;20020;-90
2022/10/21 00:48:07;;;;;;;19.30;14.20;;;;;;;10.44;86.84;98451.22;5030651;28;20026;-90
2022/10/21 00:50:42;;;;;;;20.60;15.43;;;;;;;10.35;87.12;98469.53;5024956;28;20035;-90
2022/10/21 00:53:11;;;;;;;19.92;13.82;;;;;;;10.16;87.88;98433.66;5046525;28;20110;-90
2022/10/21 00:55:42;;;;;;;21.58;14.55;;;;;;;10.51;87.42;98463.25;5046067;28;20037;-91
2022/10/21 00:58:09;;;;;;;23.60;14.90;;;;;;;10.32;88.09;98453.25;5041551;28;20040;-89
2022/10/21 01:00:34;;;;;;;23.48;16.70;;;;;;;10.28;88.36;98430.81;5045659;28;20029;-90
2022/10/21 01:03:00;;;;;;;21.40;15.25;;;;;;;10.33;87.61;98439.66;5029649;28;20029;-89
2022/10/21 01:05:26;;;;;;;22.02;15.98;;;;;;;10.67;87.23;98452.66;5029827;28;20037;-90
2022/10/21 01:07:51;;;;;;;19.73;14.93;;;;;;;10.54;86.83;98444.06;5047145;28;20029;-89
2022/10/21 01:10:17;;;;;;;19.30;13.65;;;;;;;10.62;86.98;98432.09;5045805;28;20021;-89
2022/10/21 01:13:02;;;;;;;20.38;14.07;;;;;;;10.62;87.25;98421.41;5046590;28;20059;-90
2022/10/21 01:15:35;;;;;;;19.00;14.70;;;;;;;10.73;87.47;98427.59;5044839;28;20484;-90
2022/10/21 01:18:08;;;;;;;18.60;14.25;;;;;;;10.50;87.83;98418.97;5045011;28;20064;-89
2022/10/21 01:20:46;;;;;;;23.25;15.38;;;;;;;10.75;87.29;98446.84;5047679;28;20493;-90
2022/10/21 01:24:09;;;;;;;19.23;12.98;;;;;;;10.84;87.05;98434.59;5044967;28;20033;-89
2022/10/21 01:27:15;;;;;;;21.65;14.65;;;;;;;10.86;86.93;98432.47;4971123;28;20031;-90
2022/10/21 01:30:32;;;;;;;18.52;13.57;;;;;;;10.57;87.71;98431.28;4966305;28;20031;-89
2022/10/21 01:33:25;;;;;;;17.20;14.07;;;;;;;10.91;86.38;98437.84;4972880;28;20036;-89
2022/10/21 01:35:59;;;;;;;19.42;14.45;;;;;;;10.75;87.32;98425.47;4991800;28;20272;-89
2022/10/21 01:38:45;;;;;;;22.20;14.63;;;;;;;10.71;86.93;98417.19;5003816;28;20053;-89
2022/10/21 01:41:26;;;;;;;15.07;13.25;;;;;;;10.79;86.97;98423.91;5042456;28;20064;-89
2022/10/21 01:44:15;;;;;;;21.52;14.35;;;;;;;10.66;87.35;98414.50;5040440;28;20029;-90
2022/10/21 01:46:42;;;;;;;16.83;13.35;;;;;;;10.64;88.10;98413.19;5045398;28;20034;-90
2022/10/21 01:49:21;;;;;;;16.40;13.73;;;;;;;10.61;87.61;98387.00;5043602;28;20060;-89
2022/10/21 01:51:46;;;;;;;15.65;12.63;;;;;;;10.77;87.40;98402.81;5043968;28;20037;-90
2022/10/21 01:54:21;;;;;;;19.42;13.40;;;;;;;10.65;87.22;98388.06;5025617;28;20034;-90
2022/10/21 01:56:49;;;;;;;19.45;13.05;;;;;;;10.57;88.32;98395.50;5045793;28;20704;-89
2022/10/21 01:59:16;;;;;;;18.92;13.88;;;;;;;10.49;90.01;98408.53;5031374;28;20500;-89
2022/10/21 02:01:45;;;;;;;21.52;14.75;;;;;;;10.57;88.38;98399.25;5024407;28;20057;-89
2022/10/21 02:04:12;;;;;;;19.73;14.50;;;;;;;10.13;87.94;98319.53;5044394;28;20030;-89
2022/10/21 02:06:38;;;;;;;16.55;13.43;;;;;;;10.63;88.33;98398.22;5029298;28;20048;-90
2022/10/21 02:09:03;;;;;;;16.60;13.43;;;;;;;10.64;88.16;98387.25;5027591;28;20064;-89
2022/10/21 02:11:33;;;;;;;21.50;14.32;;;;;;;10.47;88.37;98376.78;5022573;28;20028;-89
2022/10/21 02:14:28;;;;;;;17.35;13.77;;;;;;;10.25;90.62;98373.44;5039427;28;20044;-90
2022/10/21 02:16:54;;;;;;;20.75;13.15;;;;;;;10.51;89.21;98367.19;5040108;28;20121;-89
2022/10/21 02:19:20;;;;;;;22.00;16.08;;;;;;;10.63;88.66;98379.53;5025075;28;20036;-89
2022/10/21 02:21:48;;;;;;;18.63;13.77;;;;;;;10.68;88.33;98366.22;5044436;28;20033;-90
2022/10/21 02:24:25;;;;;;;19.35;12.88;;;;;;;10.65;88.02;98361.38;5045092;28;20037;-89
2022/10/21 02:26:50;;;;;;;17.33;13.30;;;;;;;10.74;88.64;98368.66;5049227;28;20021;-90
2022/10/21 02:29:21;;;;;;;16.83;13.85;;;;;;;10.66;88.48;98363.00;5044917;28;20030;-90
2022/10/21 02:32:28;;;;;;;16.60;12.80;;;;;;;10.67;88.93;98351.25;5046289;28;20033;-89
2022/10/21 02:35:15;;;;;;;14.25;12.02;;;;;;;10.69;88.81;98339.25;5031489;28;20771;-89
2022/10/21 02:38:19;;;;;;;19.60;13.52;;;;;;;10.63;88.83;98326.16;5048780;28;20029;-90
2022/10/21 02:40:50;;;;;;;15.93;12.68;;;;;;;10.59;89.28;98325.88;5047149;28;20028;-90
2022/10/21 02:43:23;;;;;;;18.17;13.38;;;;;;;10.47;88.92;98288.75;5036440;28;20120;-90
2022/10/21 02:45:49;;;;;;;15.50;12.52;;;;;;;10.47;89.94;98315.41;5051399;28;20029;-90
2022/10/21 02:48:15;;;;;;;16.88;12.38;;;;;;;10.44;90.11;98310.59;5029440;28;20029;-90
2022/10/21 02:50:40;;;;;;;21.08;12.95;;;;;;;10.53;89.75;98305.56;5051580;28;20047;-90
2022/10/21 02:53:09;;;;;;;16.88;13.02;;;;;;;10.10;89.72;98253.34;5029752;28;20021;-90
2022/10/21 02:55:35;;;;;;;20.45;14.13;;;;;;;10.18;91.61;98274.19;5047922;28;20124;-90
2022/10/21 02:58:00;;;;;;;16.70;13.65;;;;;;;10.37;91.34;98302.03;5034810;28;20109;-89
2022/10/21 03:00:25;;;;;;;21.42;15.00;;;;;;;10.43;89.77;98286.84;5017879;28;20114;-89
2022/10/21 03:02:51;;;;;;;19.98;12.27;;;;;;;10.54;88.60;98293.84;5033700;28;20108;-89
2022/10/21 03:05:16;;;;;;;19.90;12.48;;;;;;;10.42;88.92;98269.22;5017721;28;20041;-90
2022/10/21 03:07:41;;;;;;;18.55;12.45;;;;;;;10.44;89.07;98286.59;5051560;28;20202;-90
2022/10/21 03:10:08;;;;;;;16.65;11.88;;;;;;;10.53;89.60;98300.22;5027991;28;20072;-89
2022/10/21 03:12:33;;;;;;;19.38;12.57;;;;;;;10.27;89.19;98250.50;5051816;28;20029;-90
2022/10/21 03:14:59;;;;;;;16.63;12.77;;;;;;;10.56;90.37;98313.06;5050693;28;20032;-90
2022/10/21 03:17:24;;;;;;;20.35;13.73;;;;;;;10.54;92.10;98317.84;5050143;28;20072;-90
2022/10/21 03:19:50;;;;;;;17.85;13.07;;;;;;;10.53;90.06;98329.56;5048750;28;20032;-89
2022/10/21 03:22:15;;;;;;;15.95;11.63;;;;;;;10.68;89.73;98318.16;5019101;28;20587;-91
2022/10/21 03:24:40;;;;;;;15.25;11.07;;;;;;;10.61;88.72;98301.59;5013551;28;20032;-90
2022/10/21 03:27:06;;;;;;;17.50;12.05;;;;;;;10.60;89.63;98299.97;5042905;28;20115;-89
2022/10/21 03:29:31;;;;;;;13.65;11.00;;;;;;;10.32;89.13;98256.66;5048960;28;20043;-90
2022/10/21 03:31:56;;;;;;;14.07;11.70;;;;;;;10.73;89.43;98320.84;5032891;28;20642;-90
2022/10/21 03:34:22;;;;;;;13.95;11.95;;;;;;;10.59;89.70;98320.53;5032584;28;20119;-90
2022/10/21 03:36:47;;;;;;;20.58;11.88;;;;;;;10.34;89.70;98259.06;5029397;28;20443;-90
2022/10/21 03:39:13;;;;;;;17.98;13.13;;;;;;;10.60;90.04;98300.78;5031422;28;20029;-90
2022/10/21 03:41:39;;;;;;;21.92;12.48;;;;;;;10.49;91.96;98318.63;5026879;28;20087;-90
2022/10/21 03:44:04;;;;;;;16.50;13.20;;;;;;;10.38;91.37;98294.81;5045940;28;20535;-90
2022/10/21 03:46:29;;;;;;;16.90;12.05;;;;;;;10.60;89.65;98289.31;5032412;28;20029;-90
2022/10/21 03:48:55;;;;;;;14.93;11.68;;;;;;;10.26;90.36;98232.91;5050867;28;20021;-90
2022/10/21 03:51:20;;;;;;;20.50;13.82;;;;;;;10.57;91.38;98290.66;5035480;28;20029;-90
2022/10/21 03:53:46;;;;;;;18.73;13.07;;;;;;;10.31;90.48;98233.72;5032893;28;20400;-90
2022/10/21 03:56:12;;;;;;;20.40;12.07;;;;;;;10.65;90.72;98297.34;5032706;28;20048;-90
2022/10/21 03:58:37;;;;;;;17.60;12.88;;;;;;;9.94;90.20;98178.91;5046734;28;20017;-91
2022/10/21 04:01:03;;;;;;;20.08;12.57;;;;;;;10.60;90.86;98287.44;5012557;28;20032;-90
2022/10/21 04:03:29;;;;;;;16.88;12.00;;;;;;;10.60;90.23;98294.63;5032668;28;20102;-89
2022/10/21 04:05:54;;;;;;;21.10;13.55;;;;;;;10.55;90.42;98282.88;5051560;28;20025;-90
2022/10/21 04:08:20;;;;;;;20.10;13.60;;;;;;;10.31;90.28;98241.72;5047193;28;20033;-90
2022/10/21 04:10:46;;;;;;;16.95;11.90;;;;;;;10.43;89.74;98236.16;5045422;28;20021;-90
2022/10/21 04:13:18;;;;;;;14.10;12.20;;;;;;;10.81;89.91;98286.44;5050915;28;20033;-90
2022/10/21 04:15:44;;;;;;;19.15;12.68;;;;;;;10.51;89.99;98241.78;5048689;28;20112;-90
2022/10/21 04:18:10;;;;;;;16.48;13.13;;;;;;;10.03;89.62;98155.97;5047112;28;20025;-87
2022/10/21 04:20:35;;;;;;;17.40;12.65;;;;;;;10.42;89.49;98199.88;5048033;28;20507;-87
2022/10/21 04:23:02;;;;;;;17.30;12.73;;;;;;;10.37;89.80;98226.53;5031590;28;20226;-87
2022/10/21 04:25:28;;;;;;;15.20;11.07;;;;;;;10.76;89.33;98269.63;5025370;28;20378;-87
2022/10/21 04:28:01;;;;;;;16.77;12.05;;;;;;;10.40;90.29;98216.13;5046799;28;20108;-87
2022/10/21 04:30:27;;;;;;;17.58;12.65;;;;;;;10.54;89.74;98225.25;5033455;28;20033;-87
2022/10/21 04:32:58;;;;;;;27.70;13.57;;;;;;;10.48;89.77;98234.28;5047224;28;20029;-87
2022/10/21 04:35:23;;;;;;;16.73;13.07;;;;;;;10.40;89.07;98184.13;5039485;28;20127;-87
2022/10/21 04:37:49;;;;;;;17.95;14.13;;;;;;;10.70;90.01;98252.00;5025442;28;20040;-87
2022/10/21 04:40:14;;;;;;;17.25;12.98;;;;;;;10.86;90.34;98269.63;5029048;28;20739;-87
2022/10/21 04:42:39;;;;;;;20.63;13.30;;;;;;;10.74;90.26;98258.41;5031108;28;20029;-87
2022/10/21 04:45:05;;;;;;;27.48;13.95;;;;;;;10.47;90.13;98199.88;5015369;28;20029;-87
2022/10/21 04:47:36;;;;;;;18.33;13.05;;;;;;;10.83;89.88;98240.81;5048112;28;20033;-87
2022/10/21 04:50:05;;;;;;;16.42;12.88;;;;;;;10.67;89.86;98207.13;5026298;28;20031;-88
2022/10/21 04:52:35;;;;;;;20.85;13.35;;;;;;;10.01;90.14;98126.91;5031529;28;20033;-88
2022/10/21 04:55:01;;;;;;;19.92;14.10;;;;;;;10.48;90.61;98180.94;5045756;28;20449;-89
2022/10/21 04:57:29;;;;;;;19.58;14.98;;;;;;;10.63;90.33;98204.19;5045173;28;20127;-88
2022/10/21 04:59:55;;;;;;;16.85;13.80;;;;;;;10.67;90.35;98201.78;5042618;28;20033;-88
2022/10/21 05:02:20;;;;;;;22.15;14.57;;;;;;;10.60;92.48;98241.28;5014523;28;20029;-88
2022/10/21 05:04:45;;;;;;;25.55;15.20;;;;;;;10.52;93.88;98246.06;5016371;28;20756;-88
2022/10/21 05:07:11;;;;;;;21.55;16.17;;;;;;;10.25;95.53;98221.44;5027946;28;20059;-88
2022/10/21 05:09:36;;;;;;;20.75;13.48;;;;;;;10.69;91.01;98235.16;5031627;28;20072;-88
2022/10/21 05:12:02;;;;;;;25.67;14.95;;;;;;;10.69;90.02;98239.69;5026929;28;20029;-88
2022/10/21 05:14:28;;;;;;;19.05;13.35;;;;;;;10.90;89.39;98244.03;5046435;28;20040;-88
2022/10/21 05:16:53;;;;;;;15.02;12.48;;;;;;;10.93;88.96;98262.97;5030313;28;20060;-88
2022/10/21 05:19:18;;;;;;;17.83;13.85;;;;;;;10.82;90.08;98247.19;5042760;28;20067;-89
2022/10/21 05:21:45;;;;;;;17.88;13.15;;;;;;;10.79;89.76;98218.38;5010693;28;20032;-88
2022/10/21 05:24:12;;;;;;;15.90;12.73;;;;;;;10.93;89.57;98238.13;5026856;28;20055;-89
2022/10/21 05:26:37;;;;;;;16.02;12.95;;;;;;;10.90;89.42;98233.34;5040974;28;20133;-89
2022/10/21 05:29:03;;;;;;;19.15;13.50;;;;;;;10.92;89.75;98242.66;5029777;28;20108;-89
2022/10/21 05:31:29;;;;;;;18.83;12.82;;;;;;;10.57;89.66;98188.44;5030879;28;20067;-89
2022/10/21 05:33:54;;;;;;;16.05;12.40;;;;;;;10.90;90.13;98226.13;5028983;28;20123;-89
2022/10/21 05:36:20;;;;;;;18.40;13.32;;;;;;;10.96;90.04;98232.28;5046484;28;20037;-89
2022/10/21 05:38:45;;;;;;;17.50;12.80;;;;;;;10.67;90.17;98194.59;5028954;28;20448;-88
2022/10/21 05:41:11;;;;;;;18.73;13.05;;;;;;;10.80;90.40;98220.78;5045329;28;20064;-88
2022/10/21 05:43:37;;;;;;;15.45;11.73;;;;;;;10.70;90.36;98209.28;5043253;28;20651;-88
2022/10/21 05:46:03;;;;;;;17.67;12.85;;;;;;;10.52;90.92;98195.38;5043387;28;20438;-89
2022/10/21 05:48:28;;;;;;;19.15;13.20;;;;;;;10.85;90.59;98239.47;5042423;28;20084;-89
2022/10/21 05:50:55;;;;;;;20.58;13.82;;;;;;;10.86;90.41;98235.72;5031940;28;20032;-89
2022/10/21 05:53:22;;;;;;;21.92;12.60;;;;;;;10.76;91.06;98222.38;5028668;28;20025;-89
2022/10/21 05:55:59;;;;;;;21.58;14.70;;;;;;;10.75;90.97;98222.63;5044645;28;20428;-89
2022/10/21 05:58:26;;;;;;;20.85;15.98;;;;;;;10.74;92.59;98231.72;5043883;28;20024;-89
2022/10/21 06:00:55;;;;;;;16.35;12.77;;;;;;;10.78;90.66;98232.78;5026503;28;20021;-89
2022/10/21 06:03:22;;;;;;;16.52;11.82;;;;;;;10.47;90.25;98166.00;5045142;28;20028;-89
2022/10/21 06:05:48;;;;;;;19.83;13.15;;;;;;;10.67;90.16;98191.13;5029264;28;20119;-89
2022/10/21 06:08:13;;;;;;;17.50;12.77;;;;;;;11.03;89.48;98240.84;5037201;28;20041;-89
2022/10/21 06:10:39;;;;;;;16.80;11.50;;;;;;;10.93;90.23;98232.78;5028456;28;20083;-89
2022/10/21 06:13:04;;;;;;;19.38;13.18;;;;;;;10.99;89.56;98227.19;5028951;28;20025;-89
2022/10/21 06:15:29;;;;;;;19.92;13.05;;;;;;;11.07;90.04;98237.34;5046044;28;20171;-89
2022/10/21 06:17:55;;;;;;;21.40;13.88;;;;;;;11.07;89.57;98223.22;5031470;28;20029;-89
2022/10/21 06:20:20;;;;;;;17.52;13.48;;;;;;;11.09;89.50;98218.41;5027733;28;20120;-89
2022/10/21 06:22:46;;;;;;;19.73;12.75;;;;;;;10.93;90.07;98216.78;5047919;28;20043;-88
2022/10/21 06:25:11;;;;;;;19.23;12.98;;;;;;;10.72;90.92;98185.81;5034566;28;20033;-88
2022/10/21 06:27:36;;;;;;;15.60;12.25;;;;;;;10.96;90.33;98219.75;5050772;28;20505;-88
2022/10/21 06:30:03;;;;;;;17.45;12.70;;;;;;;10.90;90.13;98220.00;5028918;28;20076;-89
2022/10/21 06:32:28;;;;;;;20.40;14.00;;;;;;;10.72;91.15;98201.81;5047409;28;20036;-89
2022/10/21 06:34:54;;;;;;;21.00;15.60;;;;;;;10.91;91.36;98226.91;5028704;28;20021;-88
2022/10/21 06:37:19;;;;;;;21.67;13.68;;;;;;;10.87;93.04;98228.53;5035523;28;20102;-88
2022/10/21 06:39:45;;;;;;;26.52;15.18;;;;;;;10.75;91.99;98190.59;5032017;28;20024;-88
2022/10/21 06:42:10;;;;;;;27.90;14.73;;;;;;;10.99;93.42;98239.75;5050441;28;20036;-88
2022/10/21 06:44:35;;;;;;;29.90;16.02;;;;;;;10.82;94.31;98234.66;5047652;28;20041;-88
2022/10/21 06:47:01;;;;;;;25.60;17.45;;;;;;;10.84;93.25;98218.38;5017159;28;20440;-89
2022/10/21 06:49:26;;;;;;;25.17;15.82;;;;;;;11.08;93.92;98268.34;5028794;28;20455;-89
2022/10/21 06:51:51;;;;;;;23.92;15.23;;;;;;;10.83;93.91;98238.13;5050888;28;20056;-88
2022/10/21 06:54:17;;;;;;;18.67;14.07;;;;;;;11.14;93.25;98245.09;5034994;28;20029;-87
2022/10/21 06:56:42;;;;;;;24.40;14.55;;;;;;;11.14;94.16;98261.13;5017010;28;20094;-88
2022/10/21 06:59:09;;;;;;;23.83;15.52;;;;;;;11.09;94.98;98266.47;5015263;28;20124;-89
2022/10/21 07:01:35;;;;;;;22.75;14.32;;;;;;;11.09;94.25;98259.28;5049419;28;20033;-88
2022/10/21 07:04:02;;;;;;;27.63;16.20;;;;;;;10.98;95.84;98256.84;5048440;28;20021;-88
2022/10/21 07:06:27;;;;;;;26.15;14.05;;;;;;;10.88;94.09;98222.91;5036148;28;20025;-88
2022/10/21 07:08:54;;;;;;;26.30;17.08;;;;;;;10.97;95.94;98253.38;5050091;28;20378;-88
2022/10/21 07:11:19;;;;;;;24.20;15.75;;;;;;;10.86;96.07;98256.28;5016673;28;20032;-88
2022/10/21 07:13:47;;;;;;;30.48;18.25;;;;;;;10.94;94.11;98229.06;5031214;28;20029;-88
2022/10/21 07:16:31;;;;;;;24.92;16.33;;;;;;;10.96;95.49;98267.78;5028805;28;20026;-88
2022/10/21 07:18:57;;;;;;;25.42;15.73;;;;;;;11.00;95.97;98268.88;5051550;28;20083;-88
2022/10/21 07:21:26;;;;;;;30.58;17.52;;;;;;;11.08;95.86;98271.00;5036994;28;20118;-88
2022/10/21 07:23:52;;;;;;;27.35;16.38;;;;;;;11.08;95.18;98251.50;5034998;28;20469;-88
2022/10/21 07:26:19;;;;;;;22.25;17.67;;;;;;;10.79;95.09;98207.69;5069906;28;20122;-88
2022/10/21 07:28:46;;;;;;;22.58;15.10;;;;;;;11.31;94.58;98267.81;5031673;28;20076;-88
2022/10/21 07:31:13;;;;;;;23.23;16.17;;;;;;;11.20;95.37;98268.88;5045225;28;20155;-88
2022/10/21 07:33:39;;;;;;;20.42;15.43;;;;;;;11.17;95.05;98248.03;5048244;28;20519;-88
2022/10/21 07:36:21;;;;;;;26.23;15.77;;;;;;;11.33;95.17;98268.34;5018783;28;20028;-87
2022/10/21 07:38:48;;;;;;;20.67;14.70;;;;;;;11.52;94.45;98265.13;5032745;28;20099;-88
2022/10/21 07:41:20;;;;;;;22.33;15.88;;;;;;;11.54;93.65;98269.16;5048231;28;20033;-87
2022/10/21 07:43:45;;;;;;;24.42;15.05;;;;;;;11.54;93.85;98258.44;5036613;28;20483;-89
2022/10/21 07:46:11;;;;;;;23.08;15.68;;;;;;;11.51;94.45;98272.34;5044525;28;20064;-88
2022/10/21 07:48:37;;;;;;;26.67;15.93;;;;;;;10.98;95.73;98198.09;5043460;28;20029;-88
2022/10/21 07:51:08;;;;;;;28.25;15.93;;;;;;;11.15;95.02;98226.16;5048278;28;20122;-87
2022/10/21 07:53:34;;;;;;;23.85;16.55;;;;;;;11.41;95.34;98271.53;5034964;28;20021;-88
2022/10/21 07:56:12;;;;;;;21.80;15.95;;;;;;;11.73;92.98;98269.44;5048723;28;20033;-88
2022/10/21 07:58:38;;;;;;;23.05;15.60;;;;;;;11.47;93.89;98252.56;5052219;28;20056;-88
2022/10/21 08:01:06;;;;;;;24.88;16.10;;;;;;;11.62;94.02;98270.50;5048159;28;20048;-87
2022/10/21 08:03:32;;;;;;;27.67;16.27;;;;;;;11.63;93.28;98264.88;5047983;28;20098;-88
2022/10/21 08:05:57;;;;;;;25.80;16.63;;;;;;;11.79;92.30;98266.50;5048263;28;20056;-89
2022/10/21 08:08:23;;;;;;;22.70;16.10;;;;;;;11.66;94.02;98269.69;5044704;28;20037;-86
2022/10/21 08:10:51;;;;;;;23.67;14.63;;;;;;;11.66;93.25;98255.50;5040155;28;20025;-87
2022/10/21 08:13:17;;;;;;;29.08;17.40;;;;;;;11.84;92.56;98254.94;5042249;28;20059;-87
2022/10/21 08:15:48;;;;;;;27.98;17.38;;;;;;;11.86;92.54;98264.31;5042418;28;20104;-86
2022/10/21 08:18:13;;;;;;;25.75;16.92;;;;;;;11.72;92.65;98239.22;5043832;28;21892;-86
2022/10/21 08:20:42;;;;;;;26.23;17.38;;;;;;;11.74;93.82;98255.78;5041817;28;20028;-85
2022/10/21 08:23:08;;;;;;;23.15;15.57;;;;;;;11.99;92.68;98273.66;5007221;28;20029;-84
2022/10/21 08:25:34;;;;;;;27.20;17.52;;;;;;;11.63;93.75;98251.50;5040177;28;20041;-85
2022/10/21 08:28:00;;;;;;;23.75;16.63;;;;;;;11.70;93.89;98278.78;5023519;28;21359;-86
2022/10/21 08:30:30;;;;;;;32.65;17.80;;;;;;;11.59;93.87;98249.63;5041897;28;20029;-86
2022/10/21 08:32:58;;;;;;;27.02;16.50;;;;;;;11.67;93.51;98247.25;5038360;28;20037;-85
2022/10/21 08:35:23;;;;;;;26.38;17.38;;;;;;;11.88;93.43;98266.75;5041389;28;20086;-85
2022/10/21 08:37:49;;;;;;;23.35;16.05;;;;;;;11.84;93.30;98247.75;5043545;28;20032;-85
2022/10/21 08:40:15;;;;;;;24.25;16.15;;;;;;;11.90;92.27;98243.97;5046053;28;20056;-84
2022/10/21 08:42:41;;;;;;;29.67;16.98;;;;;;;11.99;91.58;98236.22;5040073;28;20032;-84
2022/10/21 08:45:31;;;;;;;26.65;16.90;;;;;;;11.95;92.17;98251.19;5039946;28;20151;-85
2022/10/21 08:48:02;;;;;;;26.67;18.05;;;;;;;12.02;92.26;98265.09;5037119;28;20037;-84
2022/10/21 08:50:34;;;;;;;31.38;20.83;;;;;;;12.03;92.38;98254.09;5044346;28;20033;-85
2022/10/21 08:53:11;;;;;;;40.75;21.70;;;;;;;12.27;91.46;98265.03;5038521;28;20041;-85
2022/10/21 08:55:41;;;;;;;42.72;25.35;;;;;;;12.18;91.81;98265.84;5038137;28;20035;-85
2022/10/21 08:58:18;;;;;;;25.65;19.63;;;;;;;11.87;93.96;98233.84;5053770;28;20037;-85
2022/10/21 09:00:47;;;;;;;23.02;17.30;;;;;;;11.93;94.33;98246.13;5038872;28;20028;-85
2022/10/21 09:03:15;;;;;;;31.17;18.77;;;;;;;12.18;92.30;98247.91;5041883;28;20115;-85
2022/10/21 09:05:53;;;;;;;24.00;17.58;;;;;;;12.10;92.23;98239.66;5033749;28;20481;-85
2022/10/21 09:08:46;;;;;;;25.48;15.38;;;;;;;12.03;92.79;98267.47;5041431;28;21389;-85
2022/10/21 09:11:42;;;;;;;26.58;14.93;;;;;;;12.13;92.56;98272.00;5038939;28;20033;-85
2022/10/21 09:14:18;;;;;;;25.10;14.88;;;;;;;12.19;91.72;98267.47;5038355;28;20036;-85
2022/10/21 09:17:00;;;;;;;25.05;14.77;;;;;;;12.25;91.62;98263.69;5042984;28;20037;-86
2022/10/21 09:19:49;;;;;;;21.45;14.50;;;;;;;12.14;92.67;98278.16;5043487;28;20032;-85
2022/10/21 09:22:40;;;;;;;25.15;14.27;;;;;;;12.31;91.66;98274.09;5043869;28;20424;-85
2022/10/21 09:25:17;;;;;;;25.30;14.23;;;;;;;12.39;90.64;98272.72;5033930;28;20022;-85
2022/10/21 09:27:43;;;;;;;21.48;14.88;;;;;;;12.38;90.93;98263.91;5041687;28;20064;-85
2022/10/21 09:30:20;;;;;;;21.67;13.85;;;;;;;12.22;92.37;98267.69;5039713;28;20061;-85
2022/10/21 09:32:48;;;;;;;21.25;13.95;;;;;;;11.92;92.88;98243.72;5038481;28;20040;-85
2022/10/21 09:35:23;;;;;;;23.35;14.57;;;;;;;12.08;92.58;98264.00;5043543;28;20028;-85
2022/10/21 09:38:05;;;;;;;21.20;14.23;;;;;;;12.24;90.91;98256.72;5043164;28;20056;-84
2022/10/21 09:40:32;;;;;;;22.60;14.27;;;;;;;12.33;90.46;98258.56;5044067;28;20021;-86
2022/10/21 09:43:00;;;;;;;19.77;12.93;;;;;;;12.25;91.03;98271.72;5034515;28;20084;-85
2022/10/21 09:45:39;;;;;;;20.63;13.70;;;;;;;12.01;91.51;98255.47;5042518;28;20036;-85
2022/10/21 09:48:30;;;;;;;21.80;15.20;;;;;;;11.94;92.00;98252.28;5023341;28;20037;-86
2022/10/21 09:50:59;;;;;;;17.15;12.70;;;;;;;12.08;90.70;98231.13;5047116;28;20033;-85
2022/10/21 09:53:33;;;;;;;21.23;14.82;;;;;;;12.22;90.70;98262.34;5052811;28;20051;-85
2022/10/21 09:56:24;;;;;;;15.55;12.82;;;;;;;11.92;90.23;98217.78;5042927;28;20091;-84
2022/10/21 09:59:01;;;;;;;26.25;14.52;;;;;;;12.23;91.13;98274.63;5033993;28;20079;-85
2022/10/21 10:01:27;;;;;;;20.48;13.80;;;;;;;12.12;91.71;98274.97;5046445;28;20033;-84
2022/10/21 10:03:53;;;;;;;41.50;14.75;;;;;;;12.18;90.60;98272.00;5047516;28;20048;-84
2022/10/21 10:06:37;;;;;;;28.63;14.13;;;;;;;12.10;91.68;98277.88;5031432;28;20048;-84
2022/10/21 10:09:27;;;;;;;32.08;14.27;;;;;;;12.07;91.92;98285.66;5057389;28;20032;-85
2022/10/21 10:11:52;;;;;;;32.30;15.27;;;;;;;12.31;90.94;98276.78;5052431;28;20029;-85
2022/10/21 10:14:25;;;;;;;23.55;13.90;;;;;;;12.41;90.07;98267.88;5052120;28;20389;-85
2022/10/21 10:16:50;;;;;;;18.92;12.98;;;;;;;12.19;91.82;98265.56;5032005;28;20044;-85
2022/10/21 10:19:19;;;;;;;16.23;13.23;;;;;;;12.37;90.05;98261.47;5031271;28;20389;-84
2022/10/21 10:21:47;;;;;;;21.58;13.35;;;;;;;12.43;90.24;98263.06;5047119;28;20131;-85
2022/10/21 10:24:18;;;;;;;21.75;13.85;;;;;;;12.32;90.97;98264.97;5046905;28;20043;-85
2022/10/21 10:26:44;;;;;;;18.65;13.00;;;;;;;12.29;91.15;98267.41;5035215;28;20052;-84
2022/10/21 10:29:27;;;;;;;22.55;13.60;;;;;;;12.28;90.21;98257.78;5027499;28;20029;-85
2022/10/21 10:31:56;;;;;;;16.58;12.38;;;;;;;12.19;90.92;98256.75;5047052;28;20036;-85
2022/10/21 10:34:34;;;;;;;15.57;12.50;;;;;;;12.53;90.20;98263.03;5048564;28;20032;-85
2022/10/21 10:37:21;;;;;;;17.90;12.95;;;;;;;12.26;91.11;98260.72;5050271;28;20112;-84
2022/10/21 10:39:50;;;;;;;16.63;12.57;;;;;;;12.40;89.96;98247.56;5045406;28;20044;-84
2022/10/21 10:42:18;;;;;;;20.70;13.30;;;;;;;12.31;90.20;98235.81;5025749;28;20810;-86
2022/10/21 10:44:44;;;;;;;15.63;11.20;;;;;;;12.34;89.86;98235.28;5025740;28;20098;-87
2022/10/21 10:47:46;;;;;;;17.45;13.90;;;;;;;12.41;90.79;98258.00;5028830;28;20622;-86
2022/10/21 10:50:36;;;;;;;18.05;11.65;;;;;;;12.46;90.65;98252.63;5037465;28;20497;-86
2022/10/21 10:53:31;;;;;;;33.15;14.80;;;;;;;12.62;91.18;98261.38;5048758;28;20076;-87
2022/10/21 10:56:05;;;;;;;19.88;12.07;;;;;;;12.82;90.13;98245.19;5044528;28;20033;-88
2022/10/21 10:58:38;;;;;;;23.17;13.73;;;;;;;12.95;88.82;98249.94;5047135;28;20049;-86
2022/10/21 11:01:11;;;;;;;24.65;14.15;;;;;;;12.82;88.99;98247.09;5045296;28;20068;-87
2022/10/21 11:04:02;;;;;;;25.02;12.95;;;;;;;12.69;89.96;98248.47;5050356;28;20041;-87
2022/10/21 11:06:49;;;;;;;31.35;13.70;;;;;;;12.90;88.56;98233.09;5049730;28;20029;-87
2022/10/21 11:09:14;;;;;;;15.95;12.02;;;;;;;12.67;89.64;98231.88;5050540;28;20400;-86
2022/10/21 11:11:46;;;;;;;28.23;13.35;;;;;;;12.79;88.51;98232.38;5051212;28;20083;-86
2022/10/21 11:14:17;;;;;;;19.02;12.15;;;;;;;13.01;88.35;98248.81;5015143;28;20120;-86
2022/10/21 11:17:11;;;;;;;17.77;12.82;;;;;;;12.96;88.75;98243.50;5052377;28;20021;-87
2022/10/21 11:20:00;;;;;;;25.98;12.93;;;;;;;12.95;88.82;98238.44;5048147;28;20037;-87
2022/10/21 11:22:53;;;;;;;18.50;11.98;;;;;;;12.84;89.55;98240.38;5052629;28;20021;-86
2022/10/21 11:25:29;;;;;;;22.58;12.25;;;;;;;12.88;89.51;98227.22;5043996;28;20168;-86
2022/10/21 11:28:10;;;;;;;18.77;13.27;;;;;;;12.91;89.77;98229.34;5048000;28;20493;-87
2022/10/21 11:30:56;;;;;;;17.98;12.75;;;;;;;12.77;90.22;98226.50;5044270;28;20033;-86
2022/10/21 11:33:53;;;;;;;22.98;12.75;;;;;;;12.59;91.79;98222.56;5052669;28;20052;-86